createdAt,value
2019-04-03T00:02:34.842Z,71.8
2019-04-03T00:07:31.761Z,71.5
2019-04-03T00:12:31.982Z,72
2019-04-03T00:17:31.788Z,72
2019-04-03T00:22:31.815Z,71.4
2019-04-03T00:27:31.788Z,72
2019-04-03T00:32:31.796Z,72.7
2019-04-03T00:37:31.814Z,72
2019-04-03T00:42:31.900Z,72.2
2019-04-03T00:47:31.793Z,72.7
2019-04-03T00:52:31.858Z,72.4
2019-04-03T00:57:31.755Z,72.1
2019-04-03T01:02:31.801Z,73.7
2019-04-03T01:07:31.952Z,72.4
2019-04-03T01:12:31.813Z,73.8
2019-04-03T01:17:35.191Z,72.6
2019-04-03T01:22:31.813Z,73.1
2019-04-03T01:27:31.936Z,73.4
2019-04-03T01:32:31.816Z,73.5
2019-04-03T01:37:31.812Z,74
2019-04-03T01:42:31.832Z,74.2
2019-04-03T01:47:31.816Z,74.2
2019-04-03T01:52:32.492Z,74.5
2019-04-03T01:57:31.831Z,74.4
2019-04-03T02:02:32.023Z,74.1
2019-04-03T02:07:31.941Z,74.7
2019-04-03T02:12:32.092Z,74.1
2019-04-03T02:17:31.845Z,74.5
2019-04-03T02:22:31.836Z,74.4
2019-04-03T02:27:34.036Z,75.3
2019-04-03T02:32:31.854Z,74.5
2019-04-03T02:37:31.945Z,75.4
2019-04-03T02:42:31.856Z,75.2
2019-04-03T02:47:34.685Z,75.2
2019-04-03T02:52:31.865Z,75.2
2019-04-03T02:57:32.186Z,76.6
2019-04-03T03:02:31.855Z,75.7
2019-04-03T03:07:37.320Z,76.5
2019-04-03T03:12:32.181Z,75.3
2019-04-03T03:17:31.857Z,76
2019-04-03T03:22:32.361Z,75.7
2019-04-03T03:27:31.877Z,75.9
2019-04-03T03:32:37.274Z,75.9
2019-04-03T03:37:35.448Z,76.5
2019-04-03T03:42:32.745Z,77.9
2019-04-03T03:47:36.338Z,76.7
2019-04-03T03:52:38.146Z,76.2
2019-04-03T03:57:31.890Z,76.9
2019-04-03T04:02:31.899Z,77.3
2019-04-03T04:07:38.107Z,76.2
2019-04-03T04:12:31.918Z,77.7
2019-04-03T04:17:32.158Z,77.1
2019-04-03T04:22:32.012Z,77.1
2019-04-03T04:27:37.526Z,76.9
2019-04-03T04:32:31.903Z,76.1
2019-04-03T04:37:31.902Z,77.4
2019-04-03T04:42:35.340Z,77
2019-04-03T04:47:31.914Z,76.6
2019-04-03T04:52:31.921Z,78
2019-04-03T04:57:32.128Z,77.5
2019-04-03T05:02:31.923Z,77.9
2019-04-03T05:07:31.949Z,77.1
2019-04-03T05:12:31.992Z,77.1
2019-04-03T05:17:31.917Z,77.6
2019-04-03T05:22:32.147Z,78
2019-04-03T05:27:34.850Z,78.2
2019-04-03T05:32:32.005Z,78.4
2019-04-03T05:37:31.957Z,79.4
2019-04-03T05:42:31.983Z,79.2
2019-04-03T05:47:31.959Z,79.5
2019-04-03T05:52:35.688Z,79.3
2019-04-03T05:57:32.697Z,79.2
2019-04-03T06:02:32.422Z,79.2
2019-04-03T06:07:32.415Z,80.7
2019-04-03T06:12:32.427Z,79.8
2019-04-03T06:17:32.516Z,78.7
2019-04-03T06:22:32.551Z,78.1
2019-04-03T06:27:32.444Z,79
2019-04-03T06:32:32.419Z,78.6
2019-04-03T06:37:32.421Z,78.7
2019-04-03T06:42:32.600Z,77.4
2019-04-03T06:47:33.149Z,76.8
2019-04-03T06:52:32.451Z,76.3
2019-04-03T06:57:32.426Z,75.5
2019-04-03T07:02:32.619Z,76.4
2019-04-03T07:07:35.721Z,74.3
2019-04-03T07:12:32.582Z,74.6
2019-04-03T07:17:33.250Z,75.3
2019-04-03T07:22:32.461Z,74
2019-04-03T07:27:32.410Z,73.1
2019-04-03T07:32:32.470Z,71.3
2019-04-03T07:37:32.767Z,71.2
2019-04-03T07:42:32.453Z,69.9
2019-04-03T07:47:35.795Z,71.4
2019-04-03T07:52:32.675Z,71.9
2019-04-03T07:57:32.514Z,68.2
2019-04-03T08:02:34.537Z,69.7
2019-04-03T08:07:32.484Z,67.7
2019-04-03T08:12:35.866Z,67.5
2019-04-03T08:17:32.615Z,67
2019-04-03T08:22:34.096Z,66.5
2019-04-03T08:27:32.485Z,66.3
2019-04-03T08:32:32.469Z,65.2
2019-04-03T08:37:33.270Z,65.1
2019-04-03T08:42:33.196Z,63.9
2019-04-03T08:47:32.440Z,62.7
2019-04-03T08:52:32.451Z,64.1
2019-04-03T08:57:32.496Z,61.9
2019-04-03T09:02:32.492Z,59.4
2019-04-03T09:07:32.754Z,59.9
2019-04-03T09:12:32.500Z,55.2
2019-04-03T09:17:34.874Z,54.6
2019-04-03T09:22:32.535Z,55.6
2019-04-03T09:27:32.690Z,56.3
2019-04-03T09:32:32.527Z,54.4
2019-04-03T09:37:32.512Z,55.1
2019-04-03T09:42:32.509Z,54
2019-04-03T09:47:35.678Z,55.1
2019-04-03T09:52:48.086Z,52.2
2019-04-03T09:57:32.700Z,52.7
2019-04-03T10:02:32.663Z,51.2
2019-04-03T10:07:37.056Z,49.9
2019-04-03T10:12:32.850Z,49.3
2019-04-03T10:17:32.649Z,48.6
2019-04-03T10:22:32.922Z,49.3
2019-04-03T10:27:32.788Z,46.4
2019-04-03T10:32:32.502Z,44.7
2019-04-03T10:37:32.614Z,45.6
2019-04-03T10:42:32.998Z,42.5
2019-04-03T10:47:44.012Z,41.8
2019-04-03T10:52:32.890Z,42.6
2019-04-03T10:57:35.482Z,40.6
2019-04-03T11:02:32.562Z,35.8
2019-04-03T11:07:32.538Z,38
2019-04-03T11:12:32.787Z,37.3
2019-04-03T11:17:32.858Z,37.1
2019-04-03T11:22:43.065Z,36.6
2019-04-03T11:29:42.692Z,37.8
2019-04-03T11:32:33.128Z,36.8
2019-04-03T11:37:33.987Z,37.5
2019-04-03T11:42:32.761Z,36.8
2019-04-03T11:47:32.681Z,37.6
2019-04-03T11:52:33.094Z,37.5
2019-04-03T11:57:33.188Z,37
2019-04-03T12:02:33.124Z,37
2019-04-03T12:07:32.815Z,36.1
2019-04-03T12:12:32.879Z,38.9
2019-04-03T12:17:32.603Z,37.6
2019-04-03T12:22:32.590Z,36.3
2019-04-03T12:27:36.748Z,35.4
2019-04-03T12:32:43.389Z,36.4
2019-04-03T12:37:32.615Z,35.6
2019-04-03T12:42:33.124Z,36.1
2019-04-03T12:47:32.636Z,34.8
2019-04-03T12:52:32.755Z,35.7
2019-04-03T12:57:34.559Z,34.5
2019-04-03T13:02:32.613Z,33.5
2019-04-03T13:07:36.820Z,34.8
2019-04-03T13:12:32.801Z,33.4
2019-04-03T13:17:32.850Z,32.3
2019-04-03T13:22:32.636Z,34
2019-04-03T13:27:32.979Z,32.2
2019-04-03T13:32:32.837Z,31
2019-04-03T13:37:33.265Z,32.4
2019-04-03T13:42:32.587Z,31.1
2019-04-03T13:47:32.931Z,32
2019-04-03T13:52:43.442Z,31.8
2019-04-03T13:57:32.951Z,32.2
2019-04-03T14:02:33.227Z,33.1
2019-04-03T14:07:32.922Z,32.2
2019-04-03T14:12:32.652Z,32.9
2019-04-03T14:17:37.090Z,32.4
2019-04-03T14:22:32.876Z,32
2019-04-03T14:27:32.899Z,32.5
2019-04-03T14:32:33.113Z,32.4
2019-04-03T14:37:33.280Z,31.5
2019-04-03T14:42:33.097Z,32.3
2019-04-03T14:47:34.360Z,32.9
2019-04-03T14:52:33.219Z,32.3
2019-04-03T14:57:32.903Z,31.9
2019-04-03T15:02:32.815Z,30.8
2019-04-03T15:07:33.030Z,30.9
2019-04-03T15:12:32.700Z,30.3
2019-04-03T15:17:37.849Z,31.1
2019-04-03T15:22:33.760Z,30.1
2019-04-03T15:27:32.675Z,31.1
2019-04-03T15:32:33.130Z,30.6
2019-04-03T15:37:32.841Z,30.6
2019-04-03T15:42:32.695Z,32.5
2019-04-03T15:47:42.405Z,31.7
2019-04-03T15:52:32.758Z,32.5
2019-04-03T15:57:33.077Z,30.9
2019-04-03T16:02:32.723Z,32.2
2019-04-03T16:07:34.190Z,33
2019-04-03T16:12:41.113Z,33.5
2019-04-03T16:17:36.512Z,34.1
2019-04-03T16:22:32.723Z,34.8
2019-04-03T16:27:33.293Z,34.2
2019-04-03T16:32:33.025Z,34.8
2019-04-03T16:37:32.853Z,35.6
2019-04-03T16:42:32.716Z,35.3
2019-04-03T16:47:32.726Z,35.4
2019-04-03T16:52:37.713Z,35.1
2019-04-03T16:57:32.891Z,36
2019-04-03T17:02:33.517Z,36.1
2019-04-03T17:07:32.971Z,36.2
2019-04-03T17:12:32.885Z,37.8
2019-04-03T17:17:32.943Z,38.4
2019-04-03T17:22:33.455Z,38.2
2019-04-03T17:27:32.892Z,38.6
2019-04-03T17:32:32.958Z,39.4
2019-04-03T17:37:33.362Z,39.1
2019-04-03T17:42:33.036Z,39.5
2019-04-03T17:47:32.799Z,40.4
2019-04-03T17:52:32.886Z,40
2019-04-03T17:57:32.933Z,41.6
2019-04-03T18:02:32.985Z,41
2019-04-03T18:07:32.865Z,41.4
2019-04-03T18:12:32.840Z,42.1
2019-04-03T18:17:32.888Z,42.5
2019-04-03T18:22:32.883Z,43.3
2019-04-03T18:27:34.240Z,43.5
2019-04-03T18:32:33.013Z,43.6
2019-04-03T18:37:34.999Z,45.1
2019-04-03T18:42:32.846Z,45.7
2019-04-03T18:47:45.524Z,45.7
2019-04-03T18:52:32.881Z,47.5
2019-04-03T18:57:32.894Z,47.5
2019-04-03T19:02:35.204Z,47.1
2019-04-03T19:07:33.037Z,47.9
2019-04-03T19:12:36.316Z,48.4
2019-04-03T19:17:32.872Z,50.1
2019-04-03T19:22:33.033Z,50.9
2019-04-03T19:27:33.754Z,50.1
2019-04-03T19:32:32.915Z,49.5
2019-04-03T19:37:34.500Z,52.6
2019-04-03T19:42:32.857Z,51.7
2019-04-03T19:47:32.827Z,52.5
2019-04-03T19:52:33.060Z,53.8
2019-04-03T19:57:32.833Z,52.7
2019-04-03T20:02:32.949Z,54.3
2019-04-03T20:07:32.941Z,54.5
2019-04-03T20:12:33.189Z,55.7
2019-04-03T20:17:34.877Z,55.2
2019-04-03T20:22:33.051Z,56.7
2019-04-03T20:27:33.056Z,55.7
2019-04-03T20:32:33.029Z,56.3
2019-04-03T20:37:32.851Z,57.3
2019-04-03T20:42:32.855Z,58
2019-04-03T20:47:33.025Z,58.7
2019-04-03T20:52:32.997Z,58.5
2019-04-03T20:57:34.103Z,58.3
2019-04-03T21:02:32.864Z,59.4
2019-04-03T21:07:32.849Z,58.6
2019-04-03T21:12:36.396Z,59.3
2019-04-03T21:17:32.838Z,60.8
2019-04-03T21:22:32.872Z,60
2019-04-03T21:27:32.847Z,60.5
2019-04-03T21:32:32.879Z,60.4
2019-04-03T21:37:32.884Z,61.4
2019-04-03T21:42:33.097Z,61.5
2019-04-03T21:47:32.989Z,61.7
2019-04-03T21:52:32.899Z,62.6
2019-04-03T21:57:33.120Z,62.2
2019-04-03T22:02:32.887Z,61.9
2019-04-03T22:07:33.046Z,63
2019-04-03T22:12:32.888Z,63.8
2019-04-03T22:17:32.885Z,64.2
2019-04-03T22:22:34.512Z,64.2
2019-04-03T22:27:33.093Z,63.8
2019-04-03T22:32:33.006Z,65
2019-04-03T22:37:35.782Z,64.6
2019-04-03T22:42:32.903Z,65.3
2019-04-03T22:47:32.909Z,64.5
2019-04-03T22:52:32.903Z,65.4
2019-04-03T22:57:33.083Z,66.8
2019-04-03T23:02:33.116Z,65.8
2019-04-03T23:07:33.040Z,66.3
2019-04-03T23:12:34.102Z,66.3
2019-04-03T23:17:32.913Z,65.4
2019-04-03T23:22:32.941Z,66.5
2019-04-03T23:27:33.682Z,65.4
2019-04-03T23:32:32.932Z,66.5
2019-04-03T23:37:33.009Z,66.5
2019-04-03T23:42:33.080Z,65.6
2019-04-03T23:47:32.950Z,66
2019-04-03T23:52:32.913Z,66.7
2019-04-03T23:57:32.934Z,66.8
